Time;durP1;ratioP1;P1;durP2;ratioP2;P2;SDS_P1;SDS_P2;PMS_P1;PMS_P2;Temp;Humidity;BMP_temperature;BMP_pressure;BME280_temperature;BME280_humidity;BME280_pressure;Samples;Min_cycle;Max_cycle;Signal;HPM_P1;HPM_P2
2023/07/04 00:00:13;;;;;;;17.95;5.78;;;;;;;16.79;100.00;97776.03;5139760;28;20148;-53
2023/07/04 00:02:39;;;;;;;17.02;6.53;;;;;;;16.73;100.00;97777.78;5139718;28;20101;-60
2023/07/04 00:05:07;;;;;;;13.55;5.60;;;;;;;16.70;100.00;97764.84;5139921;28;20047;-60
2023/07/04 00:07:34;;;;;;;8.57;5.10;;;;;;;16.20;100.00;97746.88;5139636;28;20047;-60
2023/07/04 00:10:00;;;;;;;15.77;5.70;;;;;;;16.65;100.00;97734.91;5139793;28;20324;-53
2023/07/04 00:12:26;;;;;;;15.88;5.70;;;;;;;16.69;100.00;97741.13;5139560;28;20069;-52
2023/07/04 00:14:52;;;;;;;10.48;5.60;;;;;;;16.62;100.00;97739.34;5139675;28;20055;-56
2023/07/04 00:17:18;;;;;;;9.23;5.50;;;;;;;16.65;100.00;97738.47;5139443;28;20078;-60
2023/07/04 00:19:44;;;;;;;12.20;5.85;;;;;;;16.56;100.00;97726.50;5139830;28;20150;-61
2023/07/04 00:22:11;;;;;;;12.85;5.65;;;;;;;16.53;100.00;97717.09;5139278;28;20055;-59
2023/07/04 00:24:37;;;;;;;17.98;6.07;;;;;;;16.63;100.00;97734.59;5139724;28;20186;-60
2023/07/04 00:27:03;;;;;;;9.35;5.93;;;;;;;16.34;100.00;97709.75;5139448;28;20104;-54
2023/07/04 00:29:29;;;;;;;15.32;6.03;;;;;;;16.18;100.00;97699.53;5139408;27;20094;-59
2023/07/04 00:31:55;;;;;;;15.77;6.40;;;;;;;16.51;100.00;97691.09;5139473;27;20051;-56
2023/07/04 00:34:21;;;;;;;16.23;6.07;;;;;;;16.12;100.00;97696.50;5138585;27;20051;-56
2023/07/04 00:36:47;;;;;;;12.70;6.28;;;;;;;16.07;100.00;97680.47;5139283;27;20053;-54
2023/07/04 00:39:14;;;;;;;14.25;6.50;;;;;;;16.13;100.00;97681.50;5139121;28;20134;-57
2023/07/04 00:41:41;;;;;;;15.10;5.95;;;;;;;16.30;100.00;97673.91;5139445;28;20051;-52
2023/07/04 00:44:19;;;;;;;17.05;9.20;;;;;;;16.10;100.00;97681.59;5138920;28;20412;-55
2023/07/04 00:46:52;;;;;;;15.68;5.68;;;;;;;16.12;100.00;97679.94;5139459;28;20043;-54
2023/07/04 00:49:22;;;;;;;20.40;6.60;;;;;;;15.90;100.00;97673.47;5138799;28;20059;-53
2023/07/04 00:51:56;;;;;;;15.00;6.03;;;;;;;16.19;100.00;97671.44;5139058;28;20133;-56
2023/07/04 00:54:24;;;;;;;15.75;6.35;;;;;;;16.05;100.00;97679.34;5139046;28;20055;-59
2023/07/04 00:56:55;;;;;;;13.45;6.00;;;;;;;16.08;100.00;97672.97;5138686;28;20428;-55
2023/07/04 00:59:21;;;;;;;20.40;6.15;;;;;;;16.06;100.00;97661.56;5139092;28;20153;-59
2023/07/04 01:01:46;;;;;;;19.25;6.55;;;;;;;15.91;100.00;97661.97;5138767;28;20436;-61
2023/07/04 01:04:13;;;;;;;14.10;6.30;;;;;;;16.12;100.00;97665.34;5138918;28;20420;-59
2023/07/04 01:06:44;;;;;;;16.25;6.25;;;;;;;16.12;100.00;97662.56;5138557;28;20134;-54
2023/07/04 01:09:12;;;;;;;12.65;5.90;;;;;;;16.49;100.00;97663.84;5139024;27;20066;-56
2023/07/04 01:11:42;;;;;;;16.75;6.30;;;;;;;16.38;100.00;97661.41;5138671;27;20413;-52
2023/07/04 01:14:24;;;;;;;15.15;6.10;;;;;;;16.30;100.00;97660.09;5138302;27;20062;-60
2023/07/04 01:16:51;;;;;;;14.07;6.18;;;;;;;16.04;100.00;97675.06;5138724;28;20119;-52
2023/07/04 01:19:25;;;;;;;15.13;6.28;;;;;;;16.15;100.00;97664.47;5138334;28;20078;-57
2023/07/04 01:22:04;;;;;;;18.10;6.78;;;;;;;16.16;100.00;97674.28;5138578;28;20342;-58
2023/07/04 01:24:39;;;;;;;20.15;6.45;;;;;;;16.17;100.00;97662.03;5138283;28;20396;-60
2023/07/04 01:27:06;;;;;;;15.15;6.20;;;;;;;15.68;100.00;97679.53;5138747;28;20058;-61
2023/07/04 01:29:36;;;;;;;11.65;5.60;;;;;;;15.63;100.00;97698.63;5138171;28;20416;-55
2023/07/04 01:32:03;;;;;;;14.23;6.85;;;;;;;15.81;100.00;97710.00;5138680;27;20428;-54
2023/07/04 01:34:29;;;;;;;12.73;6.53;;;;;;;15.57;100.00;97714.94;5138032;28;20401;-57
2023/07/04 01:36:55;;;;;;;15.68;6.45;;;;;;;15.64;100.00;97728.56;5138325;28;20137;-59
2023/07/04 01:39:21;;;;;;;14.60;6.68;;;;;;;15.73;100.00;97726.00;5138104;27;20475;-59
2023/07/04 01:41:47;;;;;;;15.75;10.07;;;;;;;15.94;100.00;97716.38;5137998;28;20053;-60
2023/07/04 01:44:15;;;;;;;27.52;13.13;;;;;;;15.79;100.00;97720.69;5138191;28;20059;-51
2023/07/04 01:46:42;;;;;;;17.83;6.95;;;;;;;15.76;100.00;97738.94;5136881;27;20047;-54
2023/07/04 01:49:09;;;;;;;20.50;6.53;;;;;;;15.81;100.00;97737.63;5138369;27;20043;-60
2023/07/04 01:51:38;;;;;;;22.00;7.25;;;;;;;16.14;100.00;97727.28;5137848;28;20544;-53
2023/07/04 01:54:06;;;;;;;16.30;6.57;;;;;;;16.09;100.00;97729.78;5138257;27;20051;-53
2023/07/04 01:56:34;;;;;;;16.85;6.57;;;;;;;15.94;100.00;97735.72;5137745;28;20146;-54
2023/07/04 01:59:00;;;;;;;14.95;7.32;;;;;;;16.10;100.00;97723.06;5138312;28;20373;-60
2023/07/04 02:01:27;;;;;;;12.98;6.40;;;;;;;16.09;100.00;97746.38;5137693;28;20130;-58
2023/07/04 02:03:53;;;;;;;13.60;6.97;;;;;;;15.99;100.00;97742.69;5137658;28;20055;-60
2023/07/04 02:06:19;;;;;;;12.95;6.30;;;;;;;16.05;100.00;97740.94;5137924;28;20251;-59
2023/07/04 02:08:45;;;;;;;13.20;6.80;;;;;;;16.21;100.00;97748.41;5137820;28;20051;-55
2023/07/04 02:11:12;;;;;;;18.80;10.77;;;;;;;16.33;100.00;97733.88;5137658;28;20107;-60
2023/07/04 02:13:38;;;;;;;14.50;6.72;;;;;;;16.31;100.00;97721.69;5137674;28;20043;-55
2023/07/04 02:16:05;;;;;;;16.33;7.10;;;;;;;16.41;100.00;97720.59;5137880;28;20137;-60
2023/07/04 02:18:31;;;;;;;12.65;6.20;;;;;;;16.35;100.00;97725.13;5137465;27;20328;-57
2023/07/04 02:20:57;;;;;;;14.55;6.85;;;;;;;16.45;100.00;97732.34;5137922;28;20145;-53
2023/07/04 02:23:23;;;;;;;13.13;6.10;;;;;;;16.58;100.00;97718.53;5137422;28;20051;-55
2023/07/04 02:25:49;;;;;;;19.48;7.10;;;;;;;16.70;100.00;97706.72;5137884;28;20116;-56
2023/07/04 02:28:16;;;;;;;15.65;7.25;;;;;;;16.29;100.00;97713.03;5137311;28;20043;-60
2023/07/04 02:30:52;;;;;;;13.23;6.78;;;;;;;16.86;100.00;97701.13;5137307;28;20405;-56
2023/07/04 02:33:18;;;;;;;15.07;7.18;;;;;;;17.24;100.00;97710.63;5137373;28;20063;-56
2023/07/04 02:35:46;;;;;;;20.08;7.18;;;;;;;17.44;100.00;97716.69;5137033;27;20055;-55
2023/07/04 02:38:12;;;;;;;14.57;6.35;;;;;;;17.26;100.00;97728.34;5137368;27;20404;-56
2023/07/04 02:40:43;;;;;;;11.45;6.50;;;;;;;17.42;100.00;97738.50;5137315;28;20051;-55
2023/07/04 02:43:09;;;;;;;13.10;5.97;;;;;;;17.35;100.00;97722.13;5137566;27;20051;-59
2023/07/04 02:45:35;;;;;;;13.88;9.75;;;;;;;17.87;100.00;97704.94;5137205;28;20451;-60
2023/07/04 02:48:01;;;;;;;14.32;6.97;;;;;;;17.63;100.00;97695.47;5137572;27;20195;-56
2023/07/04 02:50:27;;;;;;;13.25;6.22;;;;;;;17.58;100.00;97696.81;5137000;28;20051;-54
2023/07/04 02:52:53;;;;;;;21.63;6.78;;;;;;;18.24;100.00;97691.34;5137484;28;20108;-52
2023/07/04 02:55:20;;;;;;;13.43;6.72;;;;;;;18.03;100.00;97701.22;5136881;28;20051;-54
2023/07/04 02:57:46;;;;;;;16.55;7.00;;;;;;;17.43;100.00;97701.28;5137747;27;20083;-56
2023/07/04 03:00:13;;;;;;;14.25;6.68;;;;;;;17.65;100.00;97718.72;5140883;28;20370;-53
2023/07/04 03:02:38;;;;;;;14.88;7.15;;;;;;;17.80;100.00;97755.09;5140507;28;20431;-51
2023/07/04 03:05:05;;;;;;;13.10;7.18;;;;;;;17.72;100.00;97762.06;5140747;28;20059;-53
2023/07/04 03:07:31;;;;;;;15.48;7.38;;;;;;;17.69;100.00;97804.53;5140474;28;20054;-59
2023/07/04 03:09:58;;;;;;;14.23;6.82;;;;;;;17.17;100.00;97855.63;5140866;27;20137;-59
2023/07/04 03:12:24;;;;;;;12.20;6.72;;;;;;;17.29;100.00;97895.63;5140528;28;20061;-55
2023/07/04 03:14:50;;;;;;;16.15;8.07;;;;;;;17.51;100.00;97893.00;5140765;28;20055;-52
2023/07/04 03:17:16;;;;;;;15.82;8.05;;;;;;;17.63;100.00;97865.28;5140371;28;20137;-57
2023/07/04 03:19:42;;;;;;;17.85;7.95;;;;;;;17.29;100.00;97935.16;5140852;27;20320;-55
2023/07/04 03:22:08;;;;;;;14.63;10.98;;;;;;;17.35;100.00;97927.88;5140279;28;20043;-53
2023/07/04 03:24:34;;;;;;;11.18;6.82;;;;;;;17.48;100.00;97897.41;5140684;27;20075;-54
2023/07/04 03:27:01;;;;;;;16.42;7.57;;;;;;;16.99;100.00;97939.19;5140458;27;20418;-57
2023/07/04 03:29:27;;;;;;;15.80;7.35;;;;;;;17.21;100.00;97993.97;5140478;28;20055;-54
2023/07/04 03:31:53;;;;;;;17.27;7.53;;;;;;;17.20;100.00;97901.81;5140211;27;20401;-53
2023/07/04 03:34:18;;;;;;;17.02;7.80;;;;;;;17.26;100.00;97910.34;5140070;28;20047;-56
2023/07/04 03:36:44;;;;;;;18.27;7.43;;;;;;;17.29;100.00;97920.53;5140416;27;20082;-57
2023/07/04 03:39:11;;;;;;;17.13;11.40;;;;;;;17.81;100.00;97863.97;5140119;28;20129;-60
2023/07/04 03:41:37;;;;;;;14.80;6.90;;;;;;;17.90;100.00;97833.59;5140391;27;20043;-52
2023/07/04 03:44:04;;;;;;;14.95;6.38;;;;;;;19.11;100.00;97727.78;5140072;28;20142;-52
2023/07/04 03:46:30;;;;;;;19.38;10.13;;;;;;;19.62;100.00;97783.66;5140342;28;20061;-56
2023/07/04 03:48:55;;;;;;;18.27;6.82;;;;;;;20.42;100.00;97921.09;5139958;28;20413;-55
2023/07/04 03:51:21;;;;;;;13.18;6.90;;;;;;;21.17;100.00;98036.97;5140204;28;20444;-51
2023/07/04 03:53:48;;;;;;;14.73;7.00;;;;;;;21.36;100.00;98116.59;5139716;27;20143;-51
2023/07/04 03:56:15;;;;;;;11.80;6.78;;;;;;;21.59;100.00;98126.34;5139867;28;20051;-59
2023/07/04 03:58:41;;;;;;;10.00;6.28;;;;;;;22.11;100.00;98173.91;5139869;27;20055;-54
2023/07/04 04:01:07;;;;;;;14.35;6.93;;;;;;;22.46;100.00;98219.00;5139899;28;20074;-55
2023/07/04 04:03:37;;;;;;;11.82;6.72;;;;;;;22.05;100.00;98219.19;5139927;28;20138;-53
2023/07/04 04:06:03;;;;;;;22.17;9.18;;;;;;;22.77;100.00;98250.31;5139701;28;20118;-55
2023/07/04 04:08:29;;;;;;;21.90;12.90;;;;;;;22.91;100.00;98268.41;5139905;28;20055;-56
2023/07/04 04:10:55;;;;;;;27.15;14.98;;;;;;;22.04;100.00;98281.84;5138597;27;20192;-54
2023/07/04 04:13:21;;;;;;;27.15;13.85;;;;;;;23.16;100.00;98263.72;5139735;28;20051;-52
2023/07/04 04:15:47;;;;;;;28.10;17.80;;;;;;;22.89;100.00;98289.69;5139322;28;20139;-52
2023/07/04 04:18:14;;;;;;;26.70;18.73;;;;;;;22.95;100.00;98310.97;5139770;28;20051;-59
2023/07/04 04:20:40;;;;;;;32.67;17.77;;;;;;;23.41;100.00;98299.63;5139292;28;20089;-60
2023/07/04 04:23:06;;;;;;;31.38;17.55;;;;;;;23.48;100.00;98352.44;5139756;28;20134;-60
2023/07/04 04:25:37;;;;;;;32.25;16.52;;;;;;;24.01;100.00;98347.56;5139470;28;20061;-60
2023/07/04 04:28:03;;;;;;;20.70;10.32;;;;;;;23.44;100.00;98337.84;5139425;28;20410;-52
2023/07/04 04:30:29;;;;;;;21.15;15.35;;;;;;;24.17;100.00;98355.53;5139283;28;20084;-56
2023/07/04 04:32:55;;;;;;;18.83;14.80;;;;;;;24.09;100.00;98351.53;5139182;28;20079;-56
2023/07/04 04:35:22;;;;;;;18.13;11.57;;;;;;;24.35;100.00;98358.19;5139291;27;20069;-59
2023/07/04 04:37:48;;;;;;;18.75;13.02;;;;;;;24.64;100.00;98379.19;5139056;28;20091;-56
2023/07/04 04:40:14;;;;;;;18.65;11.18;;;;;;;24.51;100.00;98392.69;5139352;28;20044;-58
2023/07/04 04:42:43;;;;;;;12.95;7.10;;;;;;;24.40;100.00;98379.19;5139024;28;20138;-56
2023/07/04 04:45:11;;;;;;;13.93;8.52;;;;;;;24.33;100.00;98387.97;5139356;28;20051;-53
2023/07/04 04:47:39;;;;;;;15.23;8.88;;;;;;;24.69;100.00;98400.94;5138848;28;20051;-57
2023/07/04 04:50:06;;;;;;;11.60;7.90;;;;;;;24.27;100.00;98396.22;5139241;27;20051;-59
2023/07/04 04:52:32;;;;;;;13.35;7.60;;;;;;;25.05;100.00;98401.88;5138732;27;20047;-60
2023/07/04 04:55:00;;;;;;;9.85;8.77;;;;;;;24.76;100.00;98411.78;5138569;28;20133;-56
2023/07/04 04:57:28;;;;;;;12.95;8.00;;;;;;;25.80;100.00;98428.72;5138772;28;20092;-53
2023/07/04 04:59:56;;;;;;;9.95;7.75;;;;;;;25.85;100.00;98430.06;5138796;28;20111;-61
2023/07/04 05:02:23;;;;;;;11.10;8.30;;;;;;;25.65;100.00;98425.88;5138988;28;20055;-54
2023/07/04 05:04:49;;;;;;;9.85;7.63;;;;;;;25.76;100.00;98436.53;5138640;28;20051;-55
2023/07/04 05:07:15;;;;;;;12.18;7.40;;;;;;;25.54;100.00;98440.50;5138502;27;20432;-56
2023/07/04 05:09:41;;;;;;;12.98;7.45;;;;;;;26.32;100.00;98448.63;5138430;28;20047;-55
2023/07/04 05:12:08;;;;;;;9.65;7.88;;;;;;;25.81;100.00;98444.28;5138316;28;20047;-53
2023/07/04 05:14:33;;;;;;;10.82;7.88;;;;;;;26.08;100.00;98453.63;5138176;28;20138;-54
2023/07/04 05:17:00;;;;;;;13.80;9.23;;;;;;;27.13;100.00;98461.19;5138832;28;20473;-54
2023/07/04 05:19:26;;;;;;;11.13;7.43;;;;;;;27.30;99.14;98476.19;5138218;28;20138;-59
2023/07/04 05:21:52;;;;;;;12.10;8.10;;;;;;;26.23;100.00;98469.19;5138318;27;20061;-55
2023/07/04 05:24:18;;;;;;;9.85;7.68;;;;;;;26.49;100.00;98454.47;5138495;28;20051;-55
2023/07/04 05:26:44;;;;;;;12.65;8.07;;;;;;;27.07;100.00;98463.13;5138371;28;20093;-53
2023/07/04 05:29:11;;;;;;;13.57;8.52;;;;;;;27.39;100.00;98476.03;5138486;27;20043;-59
2023/07/04 05:31:36;;;;;;;13.02;8.10;;;;;;;27.78;97.46;98483.31;5137999;28;20480;-60
2023/07/04 05:34:02;;;;;;;12.25;8.70;;;;;;;26.54;100.00;98459.41;5138467;27;20082;-58
2023/07/04 05:36:30;;;;;;;11.43;7.35;;;;;;;26.42;100.00;98447.22;5137910;28;20063;-57
2023/07/04 05:38:59;;;;;;;10.40;7.90;;;;;;;27.68;97.66;98474.25;5138397;28;20138;-51
2023/07/04 05:41:26;;;;;;;14.05;8.38;;;;;;;27.88;95.58;98488.25;5137731;27;20043;-54
2023/07/04 05:43:54;;;;;;;9.60;7.60;;;;;;;27.21;100.00;98476.34;5138244;27;20055;-56
2023/07/04 05:46:20;;;;;;;13.73;8.10;;;;;;;28.26;95.06;98483.44;5137472;27;20123;-50
2023/07/04 05:48:46;;;;;;;10.20;8.02;;;;;;;28.10;90.15;98493.31;5137605;28;20052;-56
2023/07/04 05:51:13;;;;;;;13.93;8.00;;;;;;;28.64;92.90;98474.94;5138033;28;20047;-58
2023/07/04 05:53:41;;;;;;;21.85;8.45;;;;;;;28.87;90.11;98485.06;5137511;27;20147;-56
2023/07/04 05:56:08;;;;;;;11.05;7.72;;;;;;;28.96;87.15;98489.72;5137930;28;20050;-55
2023/07/04 05:58:36;;;;;;;10.45;7.20;;;;;;;28.19;93.91;98485.94;5137793;28;20051;-59
2023/07/04 06:01:06;;;;;;;12.45;7.78;;;;;;;28.87;86.05;98504.81;5137971;28;20134;-53
2023/07/04 06:03:32;;;;;;;10.88;8.00;;;;;;;29.74;84.74;98508.94;5137542;28;20047;-54
2023/07/04 06:05:58;;;;;;;12.77;8.48;;;;;;;28.35;88.65;98502.94;5137870;28;20427;-55
2023/07/04 06:08:24;;;;;;;12.05;8.32;;;;;;;28.80;88.03;98511.69;5137325;28;20354;-58
2023/07/04 06:10:58;;;;;;;14.48;8.80;;;;;;;30.02;82.66;98523.84;5137721;28;20051;-57
2023/07/04 06:13:24;;;;;;;15.88;8.20;;;;;;;30.21;80.79;98526.19;5137155;28;20486;-54
2023/07/04 06:15:50;;;;;;;11.27;7.93;;;;;;;30.84;77.78;98527.63;5137014;28;20051;-53
2023/07/04 06:18:16;;;;;;;15.88;9.05;;;;;;;31.41;75.81;98532.53;5137214;28;20142;-56
2023/07/04 06:20:42;;;;;;;13.68;8.73;;;;;;;31.52;71.31;98545.84;5137535;28;20061;-54
2023/07/04 06:23:08;;;;;;;17.50;7.97;;;;;;;31.57;71.90;98541.47;5137726;28;20047;-58
2023/07/04 06:25:34;;;;;;;11.90;8.00;;;;;;;31.60;70.08;98544.00;5137234;28;20073;-59
2023/07/04 06:28:00;;;;;;;12.43;8.38;;;;;;;31.83;70.91;98532.53;5137542;28;20065;-58
2023/07/04 06:30:29;;;;;;;11.32;9.05;;;;;;;32.13;71.10;98538.25;5137266;28;20070;-50
2023/07/04 06:32:55;;;;;;;11.60;8.43;;;;;;;31.13;73.17;98537.56;5136923;27;20062;-59
2023/07/04 06:35:22;;;;;;;11.73;7.65;;;;;;;31.91;68.93;98552.59;5137108;28;20092;-58
2023/07/04 06:37:48;;;;;;;13.13;7.88;;;;;;;32.53;68.57;98539.44;5137613;28;20108;-59
2023/07/04 06:40:14;;;;;;;12.38;8.02;;;;;;;32.63;67.55;98548.38;5137122;28;20046;-55
2023/07/04 06:42:41;;;;;;;12.07;7.20;;;;;;;31.98;66.04;98554.84;5137440;27;20090;-55
2023/07/04 06:45:08;;;;;;;13.18;8.05;;;;;;;31.40;65.94;98555.72;5137369;27;20096;-57
2023/07/04 06:47:34;;;;;;;12.80;7.30;;;;;;;31.95;65.33;98553.84;5137195;27;20055;-54
2023/07/04 06:50:00;;;;;;;10.23;7.50;;;;;;;32.14;65.53;98548.28;5137240;27;20054;-55
2023/07/04 06:52:26;;;;;;;12.27;7.28;;;;;;;32.88;63.99;98551.97;5136981;28;20138;-57
2023/07/04 06:54:52;;;;;;;15.85;8.20;;;;;;;32.52;63.94;98556.97;5137148;28;20043;-57
2023/07/04 06:57:19;;;;;;;10.90;7.47;;;;;;;32.84;61.44;98556.41;5136792;27;20047;-56
2023/07/04 06:59:45;;;;;;;11.60;7.93;;;;;;;32.14;61.12;98561.69;5136875;27;20047;-57
2023/07/04 07:02:13;;;;;;;12.40;8.13;;;;;;;32.03;60.31;98563.31;5136881;28;20074;-52
2023/07/04 07:04:39;;;;;;;11.07;7.03;;;;;;;32.09;58.76;98563.28;5136932;28;20051;-53
2023/07/04 07:07:08;;;;;;;11.48;7.60;;;;;;;32.52;58.66;98562.66;5136459;27;20051;-57
2023/07/04 07:09:36;;;;;;;11.15;6.90;;;;;;;32.63;58.25;98562.56;5136539;28;20376;-57
2023/07/04 07:12:03;;;;;;;11.60;7.07;;;;;;;33.26;57.50;98572.72;5136914;28;20051;-53
2023/07/04 07:14:29;;;;;;;13.48;6.80;;;;;;;33.02;55.94;98567.84;5136671;28;20336;-58
2023/07/04 07:16:56;;;;;;;10.23;6.97;;;;;;;33.49;55.08;98578.91;5136651;28;20047;-54
2023/07/04 07:19:23;;;;;;;9.75;6.65;;;;;;;33.13;54.52;98574.69;5136739;27;20051;-54
2023/07/04 07:21:49;;;;;;;15.70;7.15;;;;;;;33.21;53.41;98584.13;5136822;28;20058;-55
2023/07/04 07:24:15;;;;;;;12.13;6.95;;;;;;;33.14;53.97;98582.66;5136583;28;20137;-58
2023/07/04 07:26:42;;;;;;;11.88;7.20;;;;;;;33.58;52.88;98582.66;5136548;27;20070;-57
2023/07/04 07:29:09;;;;;;;8.15;6.28;;;;;;;33.59;53.18;98581.31;5136650;28;20046;-55
2023/07/04 07:31:35;;;;;;;9.57;6.70;;;;;;;32.98;53.93;98578.72;5136949;27;20069;-51
2023/07/04 07:34:02;;;;;;;12.88;6.53;;;;;;;34.05;52.45;98597.22;5136550;28;20047;-58
2023/07/04 07:36:30;;;;;;;12.48;7.13;;;;;;;34.02;53.00;98597.53;5136782;28;20066;-59
2023/07/04 07:38:57;;;;;;;11.35;6.75;;;;;;;34.18;53.19;98593.66;5136395;27;20055;-51
2023/07/04 07:41:27;;;;;;;12.50;7.22;;;;;;;33.90;52.49;98596.91;5136705;27;20134;-58
2023/07/04 07:43:54;;;;;;;14.77;6.57;;;;;;;33.35;52.66;98591.44;5137341;27;20063;-53
2023/07/04 07:46:20;;;;;;;10.75;6.70;;;;;;;33.46;52.68;98594.16;5139807;28;20055;-50
2023/07/04 07:48:48;;;;;;;7.68;6.20;;;;;;;34.01;51.91;98602.47;5140354;27;20415;-57
2023/07/04 07:51:14;;;;;;;9.30;6.50;;;;;;;34.41;52.33;98596.91;5139838;27;20051;-52
2023/07/04 07:53:42;;;;;;;10.35;6.15;;;;;;;34.74;52.39;98598.41;5139696;28;20137;-55
2023/07/04 07:56:10;;;;;;;12.00;6.28;;;;;;;34.34;51.85;98591.84;5139641;28;20082;-56
2023/07/04 07:58:37;;;;;;;12.80;6.97;;;;;;;34.48;51.19;98595.50;5139996;28;20417;-54
2023/07/04 08:01:10;;;;;;;12.18;6.78;;;;;;;34.14;52.01;98593.97;5139532;28;20051;-55
2023/07/04 08:03:36;;;;;;;17.48;7.22;;;;;;;33.86;52.33;98596.47;5140158;27;20432;-56
2023/07/04 08:06:02;;;;;;;12.63;6.40;;;;;;;33.57;53.24;98584.72;5139160;28;20047;-56
2023/07/04 08:08:28;;;;;;;11.98;6.43;;;;;;;33.00;53.05;98600.91;5139644;28;20086;-54
2023/07/04 08:10:54;;;;;;;15.48;7.05;;;;;;;32.65;54.15;98582.66;5139425;28;20050;-54
2023/07/04 08:13:20;;;;;;;12.10;6.45;;;;;;;32.79;54.66;98589.25;5139354;27;20137;-58
2023/07/04 08:15:50;;;;;;;13.48;7.25;;;;;;;32.51;54.76;98592.34;5139442;28;20075;-55
2023/07/04 08:18:17;;;;;;;11.70;6.63;;;;;;;32.77;52.62;98595.44;5139462;28;20057;-57
2023/07/04 08:20:43;;;;;;;11.95;6.78;;;;;;;32.68;53.74;98595.78;5139338;28;20055;-55
2023/07/04 08:23:09;;;;;;;13.15;8.65;;;;;;;32.17;55.23;98589.00;5139053;28;20047;-53
2023/07/04 08:25:38;;;;;;;11.30;6.13;;;;;;;32.87;54.62;98587.34;5139390;28;20063;-58
2023/07/04 08:28:04;;;;;;;16.70;6.93;;;;;;;33.73;53.67;98591.47;5138861;28;20043;-58
2023/07/04 08:30:30;;;;;;;12.95;6.05;;;;;;;33.24;51.87;98598.03;5139446;27;20380;-59
2023/07/04 08:32:56;;;;;;;11.30;6.38;;;;;;;33.17;52.20;98592.19;5138959;28;20062;-58
2023/07/04 08:35:22;;;;;;;14.82;6.35;;;;;;;33.52;51.78;98594.06;5139134;27;20086;-57
2023/07/04 08:37:48;;;;;;;13.43;6.82;;;;;;;33.87;49.81;98595.91;5139155;28;20055;-53
2023/07/04 08:40:16;;;;;;;10.55;6.60;;;;;;;34.07;50.81;98596.69;5139080;27;20051;-52
2023/07/04 08:42:43;;;;;;;9.65;6.18;;;;;;;33.60;50.07;98602.78;5138918;27;20413;-58
2023/07/04 08:45:20;;;;;;;14.70;6.53;;;;;;;32.96;49.82;98601.19;5138450;28;20062;-52
2023/07/04 08:47:46;;;;;;;11.73;6.35;;;;;;;32.05;51.26;98599.63;5139166;27;20078;-59
2023/07/04 08:50:22;;;;;;;8.65;5.85;;;;;;;32.04;50.91;98603.78;5138541;28;20432;-53
2023/07/04 08:52:54;;;;;;;13.35;6.68;;;;;;;31.86;52.03;98605.94;5138488;27;20062;-56
2023/07/04 08:55:24;;;;;;;10.57;6.72;;;;;;;31.33;52.40;98605.19;5137894;27;20087;-52
2023/07/04 08:57:53;;;;;;;12.20;6.82;;;;;;;30.75;53.34;98602.19;5138831;27;20397;-56
2023/07/04 09:00:27;;;;;;;12.40;6.15;;;;;;;30.37;54.09;98610.22;5138389;28;20103;-56
2023/07/04 09:03:09;;;;;;;8.90;6.28;;;;;;;31.91;52.88;98607.22;5138797;28;20116;-55
2023/07/04 09:05:47;;;;;;;13.45;7.45;;;;;;;31.85;52.09;98600.78;5139078;28;20054;-55
2023/07/04 09:08:24;;;;;;;13.45;6.20;;;;;;;30.98;53.25;98610.69;5138528;28;20107;-57
2023/07/04 09:10:54;;;;;;;12.55;6.03;;;;;;;30.29;54.10;98605.59;5138792;28;20409;-59
2023/07/04 09:13:26;;;;;;;14.20;6.72;;;;;;;29.70;54.13;98610.88;5138604;28;20420;-57
2023/07/04 09:15:54;;;;;;;13.07;6.07;;;;;;;29.95;54.56;98611.94;5138595;28;20079;-55
2023/07/04 09:18:38;;;;;;;11.68;6.68;;;;;;;29.89;55.62;98610.41;5138422;27;20134;-57
2023/07/04 09:21:09;;;;;;;11.15;6.13;;;;;;;29.42;56.42;98613.56;5138125;28;20051;-58
2023/07/04 09:23:35;;;;;;;9.35;5.78;;;;;;;29.70;57.16;98615.75;5138597;28;20069;-58
2023/07/04 09:26:02;;;;;;;14.93;5.63;;;;;;;29.32;57.03;98620.72;5138159;28;20058;-56
2023/07/04 09:28:28;;;;;;;9.65;5.72;;;;;;;28.89;56.88;98617.94;5138133;27;20093;-50
2023/07/04 09:30:58;;;;;;;10.45;6.13;;;;;;;29.14;57.72;98619.09;5138004;28;20134;-58
2023/07/04 09:33:25;;;;;;;11.93;6.55;;;;;;;28.91;58.06;98612.53;5138427;28;20047;-55
2023/07/04 09:35:52;;;;;;;10.90;6.13;;;;;;;29.21;58.59;98624.28;5137646;27;20415;-54
2023/07/04 09:38:17;;;;;;;11.95;6.60;;;;;;;29.18;58.78;98621.69;5137643;27;20089;-56
2023/07/04 09:40:47;;;;;;;12.10;5.72;;;;;;;29.36;58.12;98612.00;5138099;28;20055;-57
2023/07/04 09:43:27;;;;;;;11.85;6.28;;;;;;;29.84;59.22;98611.16;5137964;28;20051;-58
2023/07/04 09:46:10;;;;;;;10.65;6.70;;;;;;;30.02;58.11;98614.28;5138169;28;20055;-54
2023/07/04 09:48:36;;;;;;;;;;;;;;;30.38;58.08;98623.06;5138189;28;20043;-57
2023/07/04 09:51:16;;;;;;;12.20;6.35;;;;;;;30.71;55.84;98618.66;5138111;28;20010;-57
2023/07/04 09:53:42;;;;;;;9.38;6.10;;;;;;;31.12;55.90;98610.38;5137728;28;20047;-55
2023/07/04 09:56:08;;;;;;;12.48;6.25;;;;;;;30.88;55.63;98624.34;5138307;28;20104;-53
2023/07/04 09:58:36;;;;;;;11.60;6.78;;;;;;;30.79;55.67;98628.22;5138143;28;20229;-56
2023/07/04 10:01:08;;;;;;;10.73;6.13;;;;;;;30.67;55.08;98629.50;5138131;28;20047;-53
2023/07/04 10:03:36;;;;;;;10.13;5.82;;;;;;;30.89;55.58;98615.34;5137845;28;20065;-55
2023/07/04 10:06:02;;;;;;;13.07;6.75;;;;;;;30.57;55.57;98623.31;5137493;28;20062;-56
2023/07/04 10:08:29;;;;;;;9.60;6.22;;;;;;;29.80;56.94;98617.06;5136913;27;20305;-52
2023/07/04 10:10:57;;;;;;;16.20;7.05;;;;;;;30.25;57.04;98619.97;5137812;27;20320;-56
2023/07/04 10:13:26;;;;;;;18.67;6.60;;;;;;;30.55;57.09;98622.28;5137839;27;20061;-57
2023/07/04 10:15:52;;;;;;;11.95;6.65;;;;;;;30.07;58.02;98620.47;5137460;28;20043;-56
2023/07/04 10:18:25;;;;;;;10.20;6.45;;;;;;;29.81;57.50;98626.31;5137957;28;20126;-59
2023/07/04 10:20:54;;;;;;;9.95;6.97;;;;;;;28.92;59.33;98630.22;5137467;27;20066;-56
2023/07/04 10:23:21;;;;;;;13.88;6.60;;;;;;;28.58;61.27;98625.13;5137453;28;20485;-58
2023/07/04 10:25:47;;;;;;;13.63;7.43;;;;;;;28.50;61.95;98626.88;5137528;28;20115;-57
2023/07/04 10:28:17;;;;;;;10.77;6.47;;;;;;;28.33;62.76;98623.13;5137341;27;20150;-56
2023/07/04 10:30:48;;;;;;;9.40;6.50;;;;;;;28.21;64.37;98624.28;5137330;28;20072;-53
2023/07/04 10:33:19;;;;;;;10.70;6.60;;;;;;;28.02;64.32;98621.03;5137231;27;20168;-56
2023/07/04 10:35:47;;;;;;;10.82;7.28;;;;;;;27.65;65.76;98632.91;5137464;28;20079;-56
2023/07/04 10:38:25;;;;;;;11.77;6.75;;;;;;;27.47;65.83;98625.56;5137269;28;20385;-55
2023/07/04 10:40:53;;;;;;;13.50;7.20;;;;;;;27.41;66.53;98630.34;5137382;28;20138;-61
2023/07/04 10:43:27;;;;;;;12.55;7.57;;;;;;;27.81;67.93;98631.59;5137287;28;20058;-61
2023/07/04 10:45:56;;;;;;;12.32;6.85;;;;;;;28.08;67.90;98625.47;5136764;28;20093;-56
2023/07/04 10:48:22;;;;;;;12.82;6.80;;;;;;;28.69;66.85;98637.78;5137095;28;20142;-59
2023/07/04 10:50:53;;;;;;;19.58;7.63;;;;;;;29.10;63.49;98629.88;5137023;28;20062;-53
2023/07/04 10:53:19;;;;;;;13.20;7.40;;;;;;;29.37;63.18;98630.50;5137192;28;20078;-55
2023/07/04 10:55:50;;;;;;;16.40;7.03;;;;;;;29.82;61.04;98628.63;5136767;28;20065;-57
2023/07/04 10:58:19;;;;;;;13.68;7.07;;;;;;;30.39;59.46;98627.44;5137252;28;20119;-55
2023/07/04 11:00:51;;;;;;;13.35;6.90;;;;;;;30.20;58.85;98630.00;5136664;28;20443;-57
2023/07/04 11:03:23;;;;;;;17.00;6.90;;;;;;;29.91;59.54;98636.09;5137241;28;20331;-57
2023/07/04 11:05:52;;;;;;;13.40;7.07;;;;;;;29.68;59.86;98632.44;5136620;28;20192;-51
2023/07/04 11:08:22;;;;;;;15.32;7.47;;;;;;;29.70;59.79;98635.53;5138673;27;20135;-60
2023/07/04 11:10:52;;;;;;;17.00;7.53;;;;;;;29.27;60.70;98632.78;5137720;27;20050;-60
2023/07/04 11:13:20;;;;;;;15.50;6.70;;;;;;;28.75;63.68;98627.31;5137368;28;20062;-59
2023/07/04 11:15:51;;;;;;;14.02;8.13;;;;;;;28.63;63.72;98628.53;5137552;28;20080;-59
2023/07/04 11:18:18;;;;;;;12.02;7.15;;;;;;;28.27;63.46;98633.59;5136536;27;20436;-61
2023/07/04 11:21:05;;;;;;;12.70;7.47;;;;;;;28.49;63.46;98625.34;5140267;27;20388;-59
2023/07/04 11:23:45;;;;;;;14.15;7.53;;;;;;;28.04;65.80;98624.91;5140013;28;20047;-54